createdAt,value
2017-10-11T00:00:25.175Z,14.1
2017-10-11T00:01:25.196Z,14.07
2017-10-11T00:02:25.547Z,14.11
2017-10-11T00:03:25.223Z,14.08
2017-10-11T00:04:25.910Z,14.05
2017-10-11T00:05:25.588Z,14.07
2017-10-11T00:06:25.957Z,14.04
2017-10-11T00:07:25.966Z,14.05
2017-10-11T00:08:25.646Z,14.08
2017-10-11T00:09:26.003Z,14.05
2017-10-11T00:10:25.682Z,14.08
2017-10-11T00:11:25.701Z,14.05
2017-10-11T00:12:26.057Z,14.11
2017-10-11T00:13:25.729Z,14.05
2017-10-11T00:14:25.750Z,14.03
2017-10-11T00:15:26.102Z,14.08
2017-10-11T00:16:26.131Z,14.1
2017-10-11T00:17:26.138Z,14.05
2017-10-11T00:18:26.181Z,14.08
2017-10-11T00:19:25.842Z,14.05
2017-10-11T00:20:25.524Z,14.07
2017-10-11T00:21:25.542Z,14.1
2017-10-11T00:22:25.890Z,14.05
2017-10-11T00:23:25.910Z,14.03
2017-10-11T00:24:26.261Z,14.07
2017-10-11T00:25:26.282Z,14.08
2017-10-11T00:26:25.962Z,14.07
2017-10-11T00:27:25.982Z,14.05
2017-10-11T00:28:25.663Z,14.07
2017-10-11T00:29:26.016Z,14.05
2017-10-11T00:30:25.702Z,14.04
2017-10-11T00:31:26.051Z,14.05
2017-10-11T00:32:26.400Z,14.1
2017-10-11T00:33:26.424Z,14.08
2017-10-11T00:34:26.438Z,14.08
2017-10-11T00:35:26.124Z,14.03
2017-10-11T00:36:26.142Z,14.08
2017-10-11T00:37:26.161Z,14.05
2017-10-11T00:38:26.510Z,14.07
2017-10-11T00:39:26.537Z,14.11
2017-10-11T00:40:25.878Z,14.05
2017-10-11T00:41:26.572Z,14.12
2017-10-11T00:42:25.916Z,14.07
2017-10-11T00:43:26.263Z,14.07
2017-10-11T00:44:26.647Z,14.03
2017-10-11T00:45:26.643Z,14.08
2017-10-11T00:46:26.319Z,14.05
2017-10-11T00:47:26.338Z,14.08
2017-10-11T00:48:26.355Z,14.07
2017-10-11T00:49:26.373Z,14.11
2017-10-11T00:50:26.725Z,14.07
2017-10-11T00:51:26.438Z,14.1
2017-10-11T00:52:26.426Z,14.08
2017-10-11T00:53:26.446Z,14.05
2017-10-11T00:54:26.465Z,14.1
2017-10-11T00:55:26.484Z,14.03
2017-10-11T00:56:26.514Z,14.07
2017-10-11T00:57:26.513Z,14.08
2017-10-11T00:58:26.865Z,14.07
2017-10-11T00:59:26.884Z,14.1
2017-10-11T01:00:26.902Z,14.05
2017-10-11T01:01:26.589Z,14.14
2017-10-11T01:02:26.603Z,14.07
2017-10-11T01:03:27.120Z,14.07
2017-10-11T01:04:26.640Z,14.12
2017-10-11T01:05:26.324Z,14.08
2017-10-11T01:06:26.673Z,14.14
2017-10-11T01:07:27.031Z,14.05
2017-10-11T01:08:26.709Z,14.07
2017-10-11T01:09:26.729Z,14.08
2017-10-11T01:10:27.081Z,14.07
2017-10-11T01:11:26.769Z,14.11
2017-10-11T01:12:26.447Z,14.05
2017-10-11T01:13:26.467Z,14.07
2017-10-11T01:14:26.824Z,14.1
2017-10-11T01:15:26.503Z,14.07
2017-10-11T01:16:26.522Z,14.08
2017-10-11T01:17:27.203Z,14.12
2017-10-11T01:18:26.554Z,14.07
2017-10-11T01:19:26.572Z,14.07
2017-10-11T01:20:26.942Z,14.11
2017-10-11T01:21:26.943Z,14.05
2017-10-11T01:22:26.961Z,14.1
2017-10-11T01:23:26.987Z,14.04
2017-10-11T01:24:26.999Z,14.07
2017-10-11T01:25:27.344Z,14.07
2017-10-11T01:26:26.696Z,14.1
2017-10-11T01:27:27.050Z,14.08
2017-10-11T01:28:27.403Z,14.11
2017-10-11T01:29:27.422Z,14.07
2017-10-11T01:30:27.437Z,14.11
2017-10-11T01:31:27.457Z,14.05
2017-10-11T01:32:27.477Z,14.05
2017-10-11T01:33:27.158Z,14.07
2017-10-11T01:34:27.183Z,14.11
2017-10-11T01:35:27.529Z,14.05
2017-10-11T01:36:27.210Z,14.07
2017-10-11T01:37:27.567Z,14.1
2017-10-11T01:38:27.245Z,14.08
2017-10-11T01:39:27.275Z,14
2017-10-11T01:40:26.947Z,14
2017-10-11T01:41:27.634Z,13.99
2017-10-11T01:42:27.317Z,13.99
2017-10-11T01:43:27.332Z,14.05
2017-10-11T01:44:27.378Z,13.96
2017-10-11T01:45:27.376Z,14.04
2017-10-11T01:46:27.388Z,14
2017-10-11T01:47:27.071Z,14
2017-10-11T01:48:27.422Z,13.95
2017-10-11T01:49:27.460Z,13.96
2017-10-11T01:50:27.126Z,13.97
2017-10-11T01:51:27.479Z,14.04
2017-10-11T01:52:27.159Z,14
2017-10-11T01:53:27.509Z,13.92
2017-10-11T01:54:27.865Z,13.9
2017-10-11T01:55:27.548Z,13.96
2017-10-11T01:56:27.564Z,13.92
2017-10-11T01:57:27.586Z,13.95
2017-10-11T01:58:27.599Z,13.97
2017-10-11T01:59:27.290Z,13.93
2017-10-11T02:00:27.631Z,13.93
2017-10-11T02:01:27.990Z,14.03
2017-10-11T02:02:27.672Z,14.03
2017-10-11T02:03:27.357Z,13.95
2017-10-11T02:04:28.042Z,13.92
2017-10-11T02:05:27.725Z,13.93
2017-10-11T02:06:27.744Z,13.92
2017-10-11T02:07:28.098Z,13.92
2017-10-11T02:08:27.443Z,13.9
2017-10-11T02:09:28.131Z,13.97
2017-10-11T02:10:27.812Z,13.95
2017-10-11T02:11:27.831Z,13.9
2017-10-11T02:12:28.183Z,13.92
2017-10-11T02:13:28.204Z,13.99
2017-10-11T02:14:27.894Z,13.97
2017-10-11T02:15:27.569Z,13.95
2017-10-11T02:16:27.919Z,13.93
2017-10-11T02:17:27.935Z,13.93
2017-10-11T02:18:28.288Z,13.97
2017-10-11T02:19:28.327Z,13.89
2017-10-11T02:20:27.657Z,13.96
2017-10-11T02:21:28.009Z,13.99
2017-10-11T02:22:28.359Z,14.03
2017-10-11T02:23:27.710Z,13.93
2017-10-11T02:24:28.096Z,13.97
2017-10-11T02:25:28.081Z,13.97
2017-10-11T02:26:28.100Z,13.96
2017-10-11T02:27:28.449Z,13.97
2017-10-11T02:28:28.503Z,13.95
2017-10-11T02:29:27.818Z,13.97
2017-10-11T02:30:27.833Z,14.03
2017-10-11T02:31:28.525Z,14
2017-10-11T02:32:28.204Z,13.97
2017-10-11T02:33:28.564Z,14
2017-10-11T02:34:28.239Z,13.97
2017-10-11T02:35:28.260Z,14
2017-10-11T02:36:28.274Z,14.03
2017-10-11T02:37:28.635Z,14.04
2017-10-11T02:38:28.313Z,14
2017-10-11T02:39:28.330Z,14.08
2017-10-11T02:40:28.349Z,14.05
2017-10-11T02:41:28.369Z,14
2017-10-11T02:42:28.399Z,14.03
2017-10-11T02:43:28.404Z,14
2017-10-11T02:44:28.750Z,14.08
2017-10-11T02:45:28.104Z,14.07
2017-10-11T02:46:28.454Z,14.05
2017-10-11T02:47:28.466Z,13.99
2017-10-11T02:48:28.490Z,14.12
2017-10-11T02:49:28.844Z,14.05
2017-10-11T02:50:28.192Z,14.12
2017-10-11T02:51:28.207Z,14.08
2017-10-11T02:52:28.225Z,14.05
2017-10-11T02:53:28.246Z,14.07
2017-10-11T02:54:28.941Z,14.07
2017-10-11T02:55:28.615Z,14.11
2017-10-11T02:56:28.630Z,14.03
2017-10-11T02:57:28.655Z,14.08
2017-10-11T02:58:28.679Z,14.04
2017-10-11T02:59:28.352Z,14.12
2017-10-11T03:00:28.699Z,14.14
2017-10-11T03:01:28.718Z,14.11
2017-10-11T03:02:28.732Z,14.05
2017-10-11T03:03:28.758Z,14.17
2017-10-11T03:04:29.107Z,14.11
2017-10-11T03:05:29.120Z,14.08
2017-10-11T03:06:28.807Z,14.11
2017-10-11T03:07:29.174Z,14.17
2017-10-11T03:08:28.507Z,14.14
2017-10-11T03:09:28.863Z,14.12
2017-10-11T03:10:28.875Z,14.11
2017-10-11T03:11:28.898Z,14.15
2017-10-11T03:12:28.911Z,14.15
2017-10-11T03:13:28.936Z,14.11
2017-10-11T03:14:28.946Z,14.14
2017-10-11T03:15:28.964Z,14.14
2017-10-11T03:16:29.315Z,14.14
2017-10-11T03:17:28.679Z,14.14
2017-10-11T03:18:29.349Z,14.17
2017-10-11T03:19:29.371Z,14.1
2017-10-11T03:20:28.725Z,14.11
2017-10-11T03:21:28.742Z,14.17
2017-10-11T03:22:29.093Z,14.17
2017-10-11T03:23:29.110Z,14.2
2017-10-11T03:24:29.128Z,14.18
2017-10-11T03:25:29.144Z,14.2
2017-10-11T03:26:29.166Z,14.12
2017-10-11T03:27:29.177Z,14.2
2017-10-11T03:28:28.861Z,14.2
2017-10-11T03:29:29.230Z,14.1
2017-10-11T03:30:29.579Z,14.17
2017-10-11T03:31:29.318Z,14.11
2017-10-11T03:32:28.935Z,14.03
2017-10-11T03:33:29.640Z,14.2
2017-10-11T03:34:29.304Z,14.15
2017-10-11T03:35:29.324Z,14.2
2017-10-11T03:36:29.339Z,14.18
2017-10-11T03:37:29.701Z,14.11
2017-10-11T03:38:29.104Z,14.17
2017-10-11T03:39:29.729Z,14.17
2017-10-11T03:40:29.753Z,14.11
2017-10-11T03:41:29.101Z,14.14
2017-10-11T03:42:29.451Z,14.2
2017-10-11T03:43:29.466Z,14.2
2017-10-11T03:44:29.150Z,14.18
2017-10-11T03:45:29.499Z,14.17
2017-10-11T03:46:29.516Z,14.2
2017-10-11T03:47:29.869Z,14.17
2017-10-11T03:48:29.559Z,14.18
2017-10-11T03:49:29.575Z,14.12
2017-10-11T03:50:29.924Z,14.11
2017-10-11T03:51:29.271Z,14.12
2017-10-11T03:52:29.628Z,14.17
2017-10-11T03:53:29.975Z,14.17
2017-10-11T03:54:29.660Z,14.18
2017-10-11T03:55:29.345Z,14.17
2017-10-11T03:56:30.031Z,14.11
2017-10-11T03:57:29.723Z,14.2
2017-10-11T03:58:29.731Z,14.15
2017-10-11T03:59:30.089Z,14.12
2017-10-11T04:00:29.765Z,14.15
2017-10-11T04:01:29.785Z,14.04
2017-10-11T04:02:30.133Z,14.18
2017-10-11T04:03:30.194Z,14.22
2017-10-11T04:04:29.505Z,14.12
2017-10-11T04:05:29.858Z,14.23
2017-10-11T04:06:29.881Z,14.11
2017-10-11T04:07:29.898Z,14.23
2017-10-11T04:08:29.911Z,14.15
2017-10-11T04:09:29.924Z,14.25
2017-10-11T04:10:29.962Z,14.18
2017-10-11T04:11:29.630Z,14.15
2017-10-11T04:12:29.651Z,14.12
2017-10-11T04:13:29.696Z,14.22
2017-10-11T04:14:30.016Z,14.2
2017-10-11T04:15:30.039Z,14.14
2017-10-11T04:16:30.049Z,14.23
2017-10-11T04:17:30.406Z,14.2
2017-10-11T04:18:29.752Z,14.17
2017-10-11T04:19:30.106Z,14.26
2017-10-11T04:20:30.131Z,14.25
2017-10-11T04:21:30.475Z,14.22
2017-10-11T04:22:29.827Z,14.14
2017-10-11T04:23:30.177Z,14.15
2017-10-11T04:24:30.198Z,14.1
2017-10-11T04:25:29.880Z,14.15
2017-10-11T04:26:30.230Z,14.18
2017-10-11T04:27:30.248Z,14.12
2017-10-11T04:28:30.264Z,14.12
2017-10-11T04:29:30.292Z,14.26
2017-10-11T04:30:30.306Z,14.2
2017-10-11T04:31:29.987Z,14.17
2017-10-11T04:32:30.004Z,14.12
2017-10-11T04:33:30.033Z,14.18
2017-10-11T04:34:30.377Z,14.28
2017-10-11T04:35:30.405Z,14.25
2017-10-11T04:36:30.074Z,14.25
2017-10-11T04:37:30.426Z,14.22
2017-10-11T04:38:30.779Z,14.25
2017-10-11T04:39:30.463Z,14.25
2017-10-11T04:40:30.478Z,14.23
2017-10-11T04:41:30.835Z,14.28
2017-10-11T04:42:30.182Z,14.22
2017-10-11T04:43:30.201Z,14.29
2017-10-11T04:44:30.553Z,14.2
2017-10-11T04:45:30.575Z,14.23
2017-10-11T04:46:30.586Z,14.17
2017-10-11T04:47:30.616Z,14.18
2017-10-11T04:48:30.960Z,14.2
2017-10-11T04:49:30.649Z,14.26
2017-10-11T04:50:30.656Z,14.2
2017-10-11T04:51:30.350Z,14.2
2017-10-11T04:52:30.359Z,14.2
2017-10-11T04:53:30.711Z,14.14
2017-10-11T04:54:31.067Z,14.28
2017-10-11T04:55:30.416Z,14.26
2017-10-11T04:56:30.429Z,14.22
2017-10-11T04:57:30.448Z,14.2
2017-10-11T04:58:30.799Z,14.23
2017-10-11T04:59:30.820Z,14.17
2017-10-11T05:00:31.170Z,14.22
2017-10-11T05:01:30.871Z,14.23
2017-10-11T05:02:30.876Z,14.23
2017-10-11T05:03:30.898Z,14.2
2017-10-11T05:04:30.908Z,14.22
2017-10-11T05:05:30.925Z,14.28
2017-10-11T05:06:30.943Z,14.22
2017-10-11T05:07:30.961Z,14.12
2017-10-11T05:08:30.978Z,14.25
2017-10-11T05:09:30.998Z,14.26
2017-10-11T05:10:31.014Z,14.2
2017-10-11T05:11:31.373Z,14.15
2017-10-11T05:12:31.386Z,14.23
2017-10-11T05:13:31.403Z,14.14
2017-10-11T05:14:31.424Z,14.17
2017-10-11T05:15:31.103Z,14.18
2017-10-11T05:16:31.123Z,14.11
2017-10-11T05:17:31.144Z,14.12
2017-10-11T05:18:31.161Z,14.17
2017-10-11T05:19:31.176Z,14.22
2017-10-11T05:20:31.192Z,14.25
2017-10-11T05:21:31.215Z,14.18
2017-10-11T05:22:31.234Z,14.17
2017-10-11T05:23:31.247Z,14.22
2017-10-11T05:24:31.271Z,14.22
2017-10-11T05:25:31.288Z,14.04
2017-10-11T05:26:31.302Z,14.14
2017-10-11T05:27:31.322Z,14.14
2017-10-11T05:28:31.002Z,14.1
2017-10-11T05:29:31.020Z,14.15
2017-10-11T05:30:31.711Z,14.14
2017-10-11T05:31:31.388Z,14.14
2017-10-11T05:32:31.416Z,14.17
2017-10-11T05:33:31.427Z,14.05
2017-10-11T05:34:31.111Z,14.1
2017-10-11T05:35:31.129Z,14.05
2017-10-11T05:36:31.145Z,14.07
2017-10-11T05:37:31.833Z,14.07
2017-10-11T05:38:31.524Z,14.08
2017-10-11T05:39:31.534Z,14.05
2017-10-11T05:40:31.550Z,13.99
2017-10-11T05:41:31.235Z,14.12
2017-10-11T05:42:31.251Z,14.08
2017-10-11T05:43:31.271Z,14.05
2017-10-11T05:44:31.636Z,14.1
2017-10-11T05:45:31.640Z,14.11
2017-10-11T05:46:31.997Z,14.05
2017-10-11T05:47:31.679Z,14.07
2017-10-11T05:48:31.692Z,14.1
2017-10-11T05:49:31.708Z,14.14
2017-10-11T05:50:32.071Z,14.07
2017-10-11T05:51:31.749Z,14.11
2017-10-11T05:52:32.105Z,14.1
2017-10-11T05:53:32.122Z,14.11
2017-10-11T05:54:32.137Z,14.11
2017-10-11T05:55:31.486Z,14.14
2017-10-11T05:56:31.847Z,14.18
2017-10-11T05:57:31.863Z,14.14
2017-10-11T05:58:32.208Z,14.18
2017-10-11T05:59:31.889Z,14.18
2017-10-11T06:00:31.905Z,14.2
2017-10-11T06:01:32.279Z,14.12
2017-10-11T06:02:31.609Z,14.15
2017-10-11T06:03:32.294Z,14.15
2017-10-11T06:04:31.981Z,14.14
2017-10-11T06:05:32.001Z,14.11
2017-10-11T06:06:31.681Z,14.15
2017-10-11T06:07:31.698Z,14.11
2017-10-11T06:08:32.059Z,14.17
2017-10-11T06:09:32.401Z,14.29
2017-10-11T06:10:31.749Z,14.1
2017-10-11T06:11:32.103Z,14.14
2017-10-11T06:12:31.796Z,14.23
2017-10-11T06:13:32.138Z,14.22
2017-10-11T06:14:32.494Z,14.17
2017-10-11T06:15:32.179Z,14.22
2017-10-11T06:16:32.193Z,14.2
2017-10-11T06:17:32.209Z,14.28
2017-10-11T06:18:32.230Z,14.22
2017-10-11T06:19:32.248Z,14.17
2017-10-11T06:20:31.932Z,14.17
2017-10-11T06:21:32.617Z,14.23
2017-10-11T06:22:32.299Z,14.23
2017-10-11T06:23:32.318Z,14.23
2017-10-11T06:24:32.337Z,14.2
2017-10-11T06:25:32.687Z,14.26
2017-10-11T06:26:32.387Z,14.3
2017-10-11T06:27:32.757Z,14.22
2017-10-11T06:28:32.416Z,14.32
2017-10-11T06:29:32.429Z,14.28
2017-10-11T06:30:32.445Z,14.3
2017-10-11T06:31:32.469Z,14.25
2017-10-11T06:32:32.146Z,14.29
2017-10-11T06:33:32.838Z,14.25
2017-10-11T06:34:32.181Z,14.25
2017-10-11T06:35:32.532Z,14.28
2017-10-11T06:36:32.549Z,14.29
2017-10-11T06:37:32.234Z,14.29
2017-10-11T06:38:32.586Z,14.29
2017-10-11T06:39:32.962Z,14.28
2017-10-11T06:40:32.624Z,14.29
2017-10-11T06:41:32.975Z,14.25
2017-10-11T06:42:32.320Z,14.29
2017-10-11T06:43:32.673Z,14.29
2017-10-11T06:44:32.692Z,14.33
2017-10-11T06:45:32.713Z,14.4
2017-10-11T06:46:32.729Z,14.32
2017-10-11T06:47:33.084Z,14.36
2017-10-11T06:48:32.764Z,14.41
2017-10-11T06:49:32.782Z,14.32
2017-10-11T06:50:33.132Z,14.35
2017-10-11T06:51:32.824Z,14.37
2017-10-11T06:52:32.511Z,14.29
2017-10-11T06:53:32.519Z,14.37
2017-10-11T06:54:32.867Z,14.4
2017-10-11T06:55:33.225Z,14.43
2017-10-11T06:56:32.909Z,14.44
2017-10-11T06:57:32.589Z,14.5
2017-10-11T06:58:32.956Z,14.47
2017-10-11T06:59:32.963Z,14.43
2017-10-11T07:00:32.982Z,14.47
2017-10-11T07:01:32.663Z,14.4
2017-10-11T07:02:33.014Z,14.41
2017-10-11T07:03:32.701Z,14.51
2017-10-11T07:04:33.383Z,14.5
2017-10-11T07:05:33.405Z,14.47
2017-10-11T07:06:33.448Z,14.51
2017-10-11T07:07:33.448Z,14.5
2017-10-11T07:08:32.788Z,14.5
2017-10-11T07:09:33.144Z,14.48
2017-10-11T07:10:32.827Z,14.53
2017-10-11T07:11:33.513Z,14.55
2017-10-11T07:12:33.197Z,14.53
2017-10-11T07:13:33.213Z,14.58
2017-10-11T07:14:33.232Z,14.51
2017-10-11T07:15:33.251Z,14.51
2017-10-11T07:16:33.268Z,14.6
2017-10-11T07:17:33.295Z,14.66
2017-10-11T07:18:33.303Z,14.62
2017-10-11T07:19:33.319Z,14.65
2017-10-11T07:20:33.675Z,14.6
2017-10-11T07:21:33.700Z,14.62
2017-10-11T07:22:33.039Z,14.68
2017-10-11T07:23:33.740Z,14.63
2017-10-11T07:24:33.752Z,14.66
2017-10-11T07:25:33.428Z,14.73
2017-10-11T07:26:33.448Z,14.7
2017-10-11T07:27:33.130Z,14.73
2017-10-11T07:28:33.484Z,14.7
2017-10-11T07:29:33.505Z,14.72
2017-10-11T07:30:33.855Z,14.7
2017-10-11T07:31:33.589Z,14.78
2017-10-11T07:32:33.568Z,14.73
2017-10-11T07:33:33.243Z,14.79
2017-10-11T07:34:33.599Z,14.78
2017-10-11T07:35:33.618Z,14.81
2017-10-11T07:36:33.626Z,14.82
2017-10-11T07:37:33.322Z,14.84
2017-10-11T07:38:34.009Z,14.78
2017-10-11T07:39:33.695Z,14.88
2017-10-11T07:40:34.035Z,14.78
2017-10-11T07:41:33.383Z,14.82
2017-10-11T07:42:33.732Z,14.88
2017-10-11T07:43:34.092Z,14.85
2017-10-11T07:44:34.102Z,14.85
2017-10-11T07:45:33.458Z,14.86
2017-10-11T07:46:34.141Z,14.86
2017-10-11T07:47:33.839Z,14.89
2017-10-11T07:48:33.846Z,14.92
2017-10-11T07:49:33.863Z,14.92
2017-10-11T07:50:33.883Z,15
2017-10-11T07:51:33.898Z,15
2017-10-11T07:52:34.267Z,14.89
2017-10-11T07:53:34.278Z,14.94
2017-10-11T07:54:33.959Z,14.96
2017-10-11T07:55:34.307Z,15
2017-10-11T07:56:34.329Z,14.92
2017-10-11T07:57:33.687Z,14.96
2017-10-11T07:58:34.027Z,14.97
2017-10-11T07:59:34.047Z,15
2017-10-11T08:00:33.729Z,15.02
2017-10-11T08:01:33.752Z,15.03
2017-10-11T08:02:34.098Z,15.09
2017-10-11T08:03:34.454Z,15.11
2017-10-11T08:04:34.496Z,14.99
2017-10-11T08:05:34.488Z,15.09
2017-10-11T08:06:34.175Z,15.04
2017-10-11T08:07:34.189Z,15.1
2017-10-11T08:08:34.212Z,15.1
2017-10-11T08:09:34.558Z,15.09
2017-10-11T08:10:34.579Z,15.19
2017-10-11T08:11:34.270Z,15.22
2017-10-11T08:12:33.949Z,15.18
2017-10-11T08:13:34.659Z,15.17
2017-10-11T08:14:34.651Z,15.24
2017-10-11T08:15:34.339Z,15.18
2017-10-11T08:16:34.700Z,15.17
2017-10-11T08:17:34.562Z,15.27
2017-10-11T08:18:34.088Z,15.31
2017-10-11T08:19:34.751Z,15.29
2017-10-11T08:20:34.767Z,15.33
2017-10-11T08:21:34.780Z,15.37
2017-10-11T08:22:34.463Z,15.35
2017-10-11T08:23:34.484Z,15.42
2017-10-11T08:24:34.499Z,15.43
2017-10-11T08:25:34.523Z,15.44
2017-10-11T08:26:34.540Z,15.46
2017-10-11T08:27:34.892Z,15.52
2017-10-11T08:28:34.574Z,15.58
2017-10-11T08:29:34.260Z,15.64
2017-10-11T08:30:34.992Z,15.68
2017-10-11T08:31:34.633Z,15.68
2017-10-11T08:32:34.654Z,15.67
2017-10-11T08:33:35.009Z,15.77
2017-10-11T08:34:34.687Z,15.83
2017-10-11T08:35:34.714Z,15.79
2017-10-11T08:36:34.389Z,15.9
2017-10-11T08:37:34.407Z,15.91
2017-10-11T08:38:35.096Z,15.98
2017-10-11T08:39:35.117Z,16.02
2017-10-11T08:40:34.802Z,16
2017-10-11T08:41:34.816Z,16.01
2017-10-11T08:42:34.839Z,16.15
2017-10-11T08:43:34.849Z,16.16
2017-10-11T08:44:35.207Z,16.23
2017-10-11T08:45:35.222Z,16.2
2017-10-11T08:46:35.241Z,16.26
2017-10-11T08:47:34.932Z,16.26
2017-10-11T08:48:35.281Z,16.17
2017-10-11T08:49:34.964Z,16.39
2017-10-11T08:50:34.983Z,16.33
2017-10-11T08:51:34.998Z,16.38
2017-10-11T08:52:34.687Z,16.41
2017-10-11T08:53:35.038Z,16.49
2017-10-11T08:54:34.727Z,16.47
2017-10-11T08:55:35.446Z,16.53
2017-10-11T08:56:35.098Z,16.5
2017-10-11T08:57:35.113Z,16.54
2017-10-11T08:58:35.130Z,16.61
2017-10-11T08:59:34.815Z,16.58
2017-10-11T09:00:35.176Z,16.68
2017-10-11T09:01:35.189Z,16.66
2017-10-11T09:02:34.871Z,16.75
2017-10-11T09:03:35.562Z,16.75
2017-10-11T09:04:35.580Z,16.74
2017-10-11T09:05:34.933Z,16.78
2017-10-11T09:06:35.621Z,16.81
2017-10-11T09:07:35.303Z,16.81
2017-10-11T09:08:35.656Z,16.86
2017-10-11T09:09:35.340Z,16.86
2017-10-11T09:10:35.363Z,16.84
2017-10-11T09:11:35.380Z,16.81
2017-10-11T09:12:35.402Z,16.86
2017-10-11T09:13:35.416Z,16.91
2017-10-11T09:14:35.106Z,16.89
2017-10-11T09:15:35.453Z,16.97
2017-10-11T09:16:35.139Z,17.01
2017-10-11T09:17:35.827Z,17.04
2017-10-11T09:18:35.513Z,17.02
2017-10-11T09:19:35.198Z,17.04
2017-10-11T09:20:35.549Z,17.05
2017-10-11T09:21:35.570Z,16.91
2017-10-11T09:22:35.586Z,17.05
2017-10-11T09:23:35.274Z,17.05
2017-10-11T09:24:35.642Z,17.08
2017-10-11T09:25:35.649Z,17.06
2017-10-11T09:26:36.006Z,17.06
2017-10-11T09:27:36.019Z,17.08
2017-10-11T09:28:35.371Z,17.16
2017-10-11T09:29:36.068Z,17.14
2017-10-11T09:30:35.410Z,17.14
2017-10-11T09:31:35.768Z,17.16
2017-10-11T09:32:35.448Z,17.15
2017-10-11T09:33:35.804Z,17.14
2017-10-11T09:34:35.487Z,17.14
2017-10-11T09:35:35.843Z,17.22
2017-10-11T09:36:35.525Z,17.23
2017-10-11T09:37:36.220Z,17.24
2017-10-11T09:38:35.567Z,17.23
2017-10-11T09:39:35.584Z,17.24
2017-10-11T09:40:35.603Z,17.22
2017-10-11T09:41:36.301Z,17.23
2017-10-11T09:42:35.974Z,17.3
2017-10-11T09:43:35.996Z,17.34
2017-10-11T09:44:36.352Z,17.39
2017-10-11T09:45:36.033Z,17.36
2017-10-11T09:46:36.407Z,17.38
2017-10-11T09:47:36.407Z,17.31
2017-10-11T09:48:36.093Z,17.41
2017-10-11T09:49:36.452Z,17.42
2017-10-11T09:50:35.796Z,17.34
2017-10-11T09:51:35.822Z,17.36
2017-10-11T09:52:36.178Z,17.36
2017-10-11T09:53:36.525Z,17.44
2017-10-11T09:54:35.878Z,17.42
2017-10-11T09:55:36.571Z,17.49
2017-10-11T09:56:35.916Z,17.48
2017-10-11T09:57:36.269Z,17.48
2017-10-11T09:58:35.955Z,17.59
2017-10-11T09:59:36.307Z,17.56
2017-10-11T10:00:36.327Z,17.57
2017-10-11T10:01:36.683Z,17.6
2017-10-11T10:02:36.371Z,17.65
2017-10-11T10:03:36.720Z,17.68
2017-10-11T10:04:36.406Z,17.68
2017-10-11T10:05:36.761Z,17.65
2017-10-11T10:06:36.448Z,17.63
2017-10-11T10:07:36.464Z,17.68
2017-10-11T10:08:36.485Z,17.64
2017-10-11T10:09:36.845Z,17.72
2017-10-11T10:10:36.191Z,17.78
2017-10-11T10:11:36.212Z,17.79
2017-10-11T10:12:36.565Z,17.87
2017-10-11T10:13:36.583Z,17.87
2017-10-11T10:14:36.940Z,17.9
2017-10-11T10:15:36.835Z,17.95
2017-10-11T10:16:36.316Z,17.95
2017-10-11T10:17:37.019Z,18
2017-10-11T10:18:36.350Z,17.98
2017-10-11T10:19:37.043Z,17.98
2017-10-11T10:20:37.062Z,18.03
2017-10-11T10:21:36.743Z,18.05
2017-10-11T10:22:36.769Z,18.07
2017-10-11T10:23:37.121Z,18.05
2017-10-11T10:24:37.144Z,18.01
2017-10-11T10:25:37.164Z,18.15
2017-10-11T10:26:36.852Z,18.1
2017-10-11T10:27:37.202Z,18.19
2017-10-11T10:28:36.553Z,18.22
2017-10-11T10:29:37.133Z,18.18
2017-10-11T10:30:36.977Z,18.29
2017-10-11T10:31:36.952Z,18.33
2017-10-11T10:32:36.631Z,18.31
2017-10-11T10:33:36.985Z,18.29
2017-10-11T10:34:36.671Z,18.37
2017-10-11T10:35:37.024Z,18.43
2017-10-11T10:36:37.379Z,18.37
2017-10-11T10:37:37.067Z,18.43
2017-10-11T10:38:37.085Z,18.41
2017-10-11T10:39:37.106Z,18.44
2017-10-11T10:40:37.461Z,18.52
2017-10-11T10:41:37.152Z,18.55
2017-10-11T10:42:37.170Z,18.53
2017-10-11T10:43:37.873Z,18.49
2017-10-11T10:44:37.206Z,18.53
2017-10-11T10:45:37.234Z,18.55
2017-10-11T10:46:37.298Z,18.47
2017-10-11T10:47:36.983Z,18.52
2017-10-11T10:48:37.294Z,18.49
2017-10-11T10:49:37.311Z,18.47
2017-10-11T10:50:37.339Z,18.47
2017-10-11T10:51:37.361Z,18.45
2017-10-11T10:52:37.037Z,18.49
2017-10-11T10:53:37.389Z,18.44
2017-10-11T10:54:37.746Z,18.5
2017-10-11T10:55:37.431Z,18.35
2017-10-11T10:56:37.119Z,18.44
2017-10-11T10:57:37.139Z,18.43
2017-10-11T10:58:37.491Z,18.43
2017-10-11T10:59:37.857Z,18.4
2017-10-11T11:00:37.206Z,18.45
2017-10-11T11:01:37.903Z,18.4
2017-10-11T11:02:37.907Z,18.45
2017-10-11T11:03:37.597Z,18.5
2017-10-11T11:04:37.622Z,18.55
2017-10-11T11:05:37.634Z,18.45
2017-10-11T11:06:37.653Z,18.55
2017-10-11T11:07:37.680Z,18.52
2017-10-11T11:08:37.698Z,18.62
2017-10-11T11:09:37.382Z,18.56
2017-10-11T11:10:37.737Z,18.62
2017-10-11T11:11:38.090Z,18.55
2017-10-11T11:12:37.776Z,18.55
2017-10-11T11:13:37.798Z,18.58
2017-10-11T11:14:37.821Z,18.5
2017-10-11T11:15:37.842Z,18.6
2017-10-11T11:16:37.526Z,18.6
2017-10-11T11:17:37.886Z,18.63
2017-10-11T11:18:38.239Z,18.63
2017-10-11T11:19:37.933Z,18.59
2017-10-11T11:20:37.608Z,18.66
2017-10-11T11:21:37.963Z,18.71
2017-10-11T11:22:37.653Z,18.73
2017-10-11T11:23:38.019Z,18.74
2017-10-11T11:24:38.366Z,18.75
2017-10-11T11:25:38.052Z,18.78
2017-10-11T11:26:38.068Z,18.83
2017-10-11T11:27:38.090Z,18.84
2017-10-11T11:28:38.451Z,18.83
2017-10-11T11:29:38.129Z,18.89
2017-10-11T11:30:38.482Z,18.89
2017-10-11T11:31:38.172Z,18.86
2017-10-11T11:32:38.191Z,18.95
2017-10-11T11:33:38.210Z,18.9
2017-10-11T11:34:38.232Z,18.86
2017-10-11T11:35:38.583Z,18.9
2017-10-11T11:36:38.274Z,18.9
2017-10-11T11:37:38.300Z,18.9
2017-10-11T11:38:38.646Z,18.86
2017-10-11T11:39:38.669Z,18.89
2017-10-11T11:40:38.360Z,18.9
2017-10-11T11:41:38.711Z,18.88
2017-10-11T11:42:38.398Z,18.9
2017-10-11T11:43:38.752Z,18.9
2017-10-11T11:44:38.773Z,18.84
2017-10-11T11:45:38.815Z,18.86
2017-10-11T11:46:38.823Z,18.93
2017-10-11T11:47:38.838Z,18.98
2017-10-11T11:48:38.530Z,18.84
2017-10-11T11:49:38.554Z,18.9
2017-10-11T11:50:38.895Z,18.92
2017-10-11T11:51:38.582Z,18.93
2017-10-11T11:52:38.605Z,18.9
2017-10-11T11:53:38.825Z,18.99
2017-10-11T11:54:38.994Z,18.96
2017-10-11T11:55:38.667Z,18.99
2017-10-11T11:56:39.020Z,18.99
2017-10-11T11:57:39.043Z,19.02
2017-10-11T11:58:38.396Z,18.99
2017-10-11T11:59:38.751Z,19.02
2017-10-11T12:00:39.110Z,18.95
2017-10-11T12:01:39.129Z,19.04
2017-10-11T12:02:39.148Z,18.98
2017-10-11T12:03:38.833Z,19.02
2017-10-11T12:04:39.195Z,19
2017-10-11T12:05:38.874Z,19.08
2017-10-11T12:06:38.563Z,19.09
2017-10-11T12:07:38.916Z,19.15
2017-10-11T12:08:38.936Z,19.24
2017-10-11T12:09:38.962Z,19.15
2017-10-11T12:10:38.990Z,19.16
2017-10-11T12:11:39.334Z,19.15
2017-10-11T12:12:39.359Z,19.27
2017-10-11T12:13:39.380Z,19.31
2017-10-11T12:14:39.080Z,19.33
2017-10-11T12:15:38.755Z,19.29
2017-10-11T12:16:39.461Z,19.37
2017-10-11T12:17:38.792Z,19.27
2017-10-11T12:18:39.168Z,19.31
2017-10-11T12:19:38.833Z,19.31
2017-10-11T12:20:39.190Z,19.39
2017-10-11T12:21:39.542Z,19.34
2017-10-11T12:22:39.568Z,19.47
2017-10-11T12:23:39.591Z,19.37
2017-10-11T12:24:39.609Z,19.55
2017-10-11T12:25:39.631Z,19.54
2017-10-11T12:26:39.316Z,19.51
2017-10-11T12:27:39.002Z,19.51
2017-10-11T12:28:39.364Z,19.56
2017-10-11T12:29:39.376Z,19.51
2017-10-11T12:30:39.731Z,19.58
2017-10-11T12:31:39.088Z,19.69
2017-10-11T12:32:39.110Z,19.63
2017-10-11T12:33:39.798Z,19.47
2017-10-11T12:34:39.818Z,19.47
2017-10-11T12:35:40.096Z,19.52
2017-10-11T12:36:39.526Z,19.66
2017-10-11T12:37:39.215Z,19.49
2017-10-11T12:38:39.570Z,19.49
2017-10-11T12:39:39.930Z,19.52
2017-10-11T12:40:39.276Z,19.44
2017-10-11T12:41:39.300Z,19.51
2017-10-11T12:42:39.998Z,19.45
2017-10-11T12:43:39.680Z,19.4
2017-10-11T12:44:39.697Z,19.45
2017-10-11T12:45:39.721Z,19.4
2017-10-11T12:46:39.653Z,19.44
2017-10-11T12:47:40.093Z,19.4
2017-10-11T12:48:39.781Z,19.47
2017-10-11T12:49:39.805Z,19.39
2017-10-11T12:50:39.488Z,19.41
2017-10-11T12:51:40.394Z,19.49
2017-10-11T12:52:40.212Z,19.41
2017-10-11T12:53:40.221Z,19.56
2017-10-11T12:54:40.010Z,19.49
2017-10-11T12:55:40.039Z,19.56
